Sakura — JG5711 — position and weather

sailwx.info

Track history (hours):
 
Tides and Currents Weather Stations Pressure Air Temp Water Temp Dewpoint Dewpoint Depression Visibility Wind Speed Wind Dir Waves Ship Positions

Sakura

Last reported at 2014-Sep-02 07:10 UTC. Time now 2014-Sep-02 19:17 UTC.
Position N 35°27' E 139°40'.

Length 32 m; draft 3.6 m.

Type: Tug. MMSI: 431101178.

Date/timePositionNaut miles runAvg speedWind from/ knotsBaromVisibWave heightAir tempDewpointWater temp
2014-Sep-02 07:10N 35°27' E 139°40'2 2.8
2014-Sep-02 06:33N 35°28' E 139°41'3 2.5
2014-Sep-02 05:33N 35°30' E 139°43'3 3.0
2014-Sep-02 04:33N 35°27' E 139°42'2 2.3
2014-Sep-02 03:33N 35°27' E 139°39'0 0.0
2014-Sep-02 02:33N 35°27' E 139°39'0 0.0
2014-Sep-02 01:33N 35°27' E 139°39'0 0.0
2014-Sep-02 00:33N 35°27' E 139°39'0 0.0
2014-Sep-01 23:33N 35°27' E 139°39'2 2.0
2014-Sep-01 22:33N 35°28' E 139°42'3 3.1
2014-Sep-01 21:33N 35°29' E 139°45'5 5.0
2014-Sep-01 20:33N 35°27' E 139°40'0 0.2
2014-Sep-01 19:33N 35°27' E 139°40'0 0.0
2014-Sep-01 05:33N 35°27' E 139°40'0 0.0
2014-Sep-01 04:33N 35°27' E 139°40'0 0.0
2014-Sep-01 03:33N 35°27' E 139°40'0 0.0
2014-Sep-01 02:33N 35°27' E 139°40'0 0.0
2014-Sep-01 01:33N 35°27' E 139°40'0 0.0
2014-Sep-01 00:33N 35°27' E 139°40'0 0.0
2014-Aug-31 23:33N 35°27' E 139°40'2 0.1
2014-Aug-30 22:33N 35°28' E 139°41'2 1.8
2014-Aug-30 21:33N 35°27' E 139°43'1 1.5
2014-Aug-30 20:33N 35°27' E 139°41'1 1.2
2014-Aug-30 19:34N 35°27' E 139°42'0 0.0
2014-Aug-30 18:33N 35°27' E 139°42'0 0.0
2014-Aug-30 17:33N 35°27' E 139°42'1 0.7
2014-Aug-30 16:33N 35°28' E 139°42'0 0.3
2014-Aug-30 15:33N 35°28' E 139°42'1 0.6
2014-Aug-30 14:33N 35°28' E 139°42'2 1.6
2014-Aug-30 13:33N 35°27' E 139°42'2 1.9
2014-Aug-30 12:33N 35°27' E 139°40'0 0.1
2014-Aug-30 11:33N 35°27' E 139°39'4 4.3
2014-Aug-30 10:33N 35°27' E 139°45'3 2.6
2014-Aug-30 09:33N 35°27' E 139°41'3 2.9
2014-Aug-30 08:33N 35°29' E 139°39'2 1.5
2014-Aug-30 07:33N 35°27' E 139°39'0 0.0
2014-Aug-30 06:33N 35°27' E 139°39'0 0.0
2014-Aug-30 05:33N 35°27' E 139°39'0 0.0
2014-Aug-30 04:33N 35°27' E 139°39'0 0.0
2014-Aug-30 03:33N 35°27' E 139°39'0 0.0
2014-Aug-30 02:33N 35°27' E 139°39'0 0.0
2014-Aug-30 01:33N 35°27' E 139°39'0 0.0
2014-Aug-30 00:33N 35°27' E 139°39'0 0.0
2014-Aug-29 23:33N 35°27' E 139°39'2 1.6
2014-Aug-29 22:33N 35°28' E 139°41'2 1.6
2014-Aug-29 21:33N 35°27' E 139°40'0 0.0
2014-Aug-29 20:33N 35°27' E 139°40'0 0.0
2014-Aug-29 08:23N 35°27' E 139°40'1 1.5
2014-Aug-29 07:34N 35°26' E 139°41'1 1.2
2014-Aug-29 06:33N 35°27' E 139°40'0 0.0
2014-Aug-29 05:33N 35°27' E 139°40'0 0.0
2014-Aug-29 04:33N 35°27' E 139°40'0 0.0
2014-Aug-29 03:33N 35°27' E 139°40'0 0.0
2014-Aug-29 02:33N 35°27' E 139°40'4 4.4
2014-Aug-29 01:33N 35°28' E 139°45'0 0.5
2014-Aug-29 00:33N 35°29' E 139°45'0 0.3
2014-Aug-28 23:33N 35°28' E 139°45'0 0.4
2014-Aug-28 22:33N 35°29' E 139°45'2 1.5
2014-Aug-28 21:33N 35°30' E 139°45'6 5.7
2014-Aug-28 20:33N 35°27' E 139°40'0 0.0
2014-Aug-28 07:10N 35°27' E 139°40'0 0.0
2014-Aug-28 06:33N 35°27' E 139°40'0 0.0
2014-Aug-28 05:33N 35°27' E 139°40'0 0.0
2014-Aug-28 04:33N 35°27' E 139°40'2 1.6
2014-Aug-28 03:34N 35°28' E 139°39'3 3.2
2014-Aug-28 02:33N 35°27' E 139°42'0 0.2
2014-Aug-28 01:33N 35°27' E 139°42'2 1.5
2014-Aug-28 00:34N 35°27' E 139°40'1 1.4
2014-Aug-27 23:34N 35°26' E 139°42'2 1.6
2014-Aug-27 22:33N 35°27' E 139°43'2 1.6
2014-Aug-27 21:33N 35°26' E 139°42'1 0.6
2014-Aug-27 20:33N 35°26' E 139°41'1 1.3
2014-Aug-27 19:33N 35°27' E 139°40'0 0.0
2014-Aug-27 07:33N 35°27' E 139°40'0 0.0
2014-Aug-27 06:33N 35°27' E 139°40'0 0.0
2014-Aug-27 05:33N 35°27' E 139°40'0 0.0
2014-Aug-27 04:33N 35°27' E 139°40'0 0.0
2014-Aug-27 03:33N 35°27' E 139°40'1 0.8
2014-Aug-27 02:33N 35°27' E 139°40'3 3.0
2014-Aug-27 01:33N 35°25' E 139°39'3 2.7
2014-Aug-27 00:33N 35°24' E 139°42'3 3.4
2014-Aug-26 23:33N 35°27' E 139°40'0 0.0
2014-Aug-26 22:33N 35°27' E 139°40'0 0.0
2014-Aug-26 21:33N 35°27' E 139°40'0 0.0
2014-Aug-26 20:33N 35°27' E 139°40'0 0.0
2014-Aug-26 07:11N 35°27' E 139°40'0 0.3
2014-Aug-26 06:33N 35°27' E 139°39'0 0.0
2014-Aug-26 05:33N 35°27' E 139°39'0 0.0
2014-Aug-26 04:33N 35°27' E 139°39'0 0.0
2014-Aug-26 03:33N 35°27' E 139°39'0 0.2
2014-Aug-26 02:33N 35°27' E 139°40'1 1.0
2014-Aug-26 01:33N 35°27' E 139°41'1 1.2
2014-Aug-26 00:33N 35°27' E 139°40'0 0.0
2014-Aug-25 23:33N 35°27' E 139°40'0 0.0
2014-Aug-25 22:33N 35°27' E 139°40'0 0.0
2014-Aug-25 21:33N 35°27' E 139°40'0 0.0
2014-Aug-25 20:33N 35°27' E 139°40'0 0.0
2014-Aug-25 08:34N 35°27' E 139°40'3 3.4
2014-Aug-25 07:34N 35°26' E 139°44'1 0.8
2014-Aug-25 06:33N 35°26' E 139°43'0 0.0
2014-Aug-25 05:33N 35°26' E 139°43'2 2.1
2014-Aug-25 04:33N 35°27' E 139°40'2 1.8
2014-Aug-25 03:33N 35°27' E 139°42'0 0.0
2014-Aug-25 02:33N 35°27' E 139°42'1 0.9
2014-Aug-25 01:33N 35°28' E 139°43'0 0.1
2014-Aug-25 00:33N 35°28' E 139°43'1 1.2
2014-Aug-24 23:33N 35°27' E 139°42'2 2.1
2014-Aug-24 22:33N 35°27' E 139°40'0 0.0
2014-Aug-24 21:33N 35°27' E 139°40'0 0.0
2014-Aug-24 20:33N 35°27' E 139°40'0 0.0
2014-Aug-24 09:32N 35°27' E 139°40'2 2.3
2014-Aug-24 08:34N 35°26' E 139°42'5 5.4
2014-Aug-24 07:33N 35°29' E 139°48'1 0.5
2014-Aug-24 06:33N 35°29' E 139°47'0 0.0
2014-Aug-24 05:34N 35°29' E 139°47'0 0.0
2014-Aug-24 04:33N 35°29' E 139°47'1 1.4
2014-Aug-24 03:33N 35°30' E 139°46'3 3.1
2014-Aug-24 02:33N 35°28' E 139°44'3 3.4
2014-Aug-24 01:33N 35°27' E 139°40'0 0.0
2014-Aug-24 00:33N 35°27' E 139°40'0 0.0
2014-Aug-23 23:33N 35°27' E 139°40'  
Track history (hours):
 
Tides and Currents Weather Stations Pressure Air Temp Water Temp Dewpoint Dewpoint Depression Visibility Wind Speed Wind Dir Waves Ship Positions

Sakura

Last reported at 2014-Sep-02 07:10 UTC. Time now 2014-Sep-02 19:17 UTC.
Position N 35°27' E 139°40'.

Length 32 m; draft 3.6 m.

Type: Tug. MMSI: 431101178.

Date/timePositionNaut miles runAvg speedWind from/ knotsBaromVisibWave heightAir tempDewpointWater temp
2014-Sep-02 07:10N 35°27' E 139°40'2 2.8
2014-Sep-02 06:33N 35°28' E 139°41'3 2.5
2014-Sep-02 05:33N 35°30' E 139°43'3 3.0
2014-Sep-02 04:33N 35°27' E 139°42'2 2.3
2014-Sep-02 03:33N 35°27' E 139°39'0 0.0
2014-Sep-02 02:33N 35°27' E 139°39'0 0.0
2014-Sep-02 01:33N 35°27' E 139°39'0 0.0
2014-Sep-02 00:33N 35°27' E 139°39'0 0.0
2014-Sep-01 23:33N 35°27' E 139°39'2 2.0
2014-Sep-01 22:33N 35°28' E 139°42'3 3.1
2014-Sep-01 21:33N 35°29' E 139°45'5 5.0
2014-Sep-01 20:33N 35°27' E 139°40'0 0.2
2014-Sep-01 19:33N 35°27' E 139°40'0 0.0
2014-Sep-01 05:33N 35°27' E 139°40'0 0.0
2014-Sep-01 04:33N 35°27' E 139°40'0 0.0
2014-Sep-01 03:33N 35°27' E 139°40'0 0.0
2014-Sep-01 02:33N 35°27' E 139°40'0 0.0
2014-Sep-01 01:33N 35°27' E 139°40'0 0.0
2014-Sep-01 00:33N 35°27' E 139°40'0 0.0
2014-Aug-31 23:33N 35°27' E 139°40'2 0.1
2014-Aug-30 22:33N 35°28' E 139°41'2 1.8
2014-Aug-30 21:33N 35°27' E 139°43'1 1.5
2014-Aug-30 20:33N 35°27' E 139°41'1 1.2
2014-Aug-30 19:34N 35°27' E 139°42'0 0.0
2014-Aug-30 18:33N 35°27' E 139°42'0 0.0
2014-Aug-30 17:33N 35°27' E 139°42'1 0.7
2014-Aug-30 16:33N 35°28' E 139°42'0 0.3
2014-Aug-30 15:33N 35°28' E 139°42'1 0.6
2014-Aug-30 14:33N 35°28' E 139°42'2 1.6
2014-Aug-30 13:33N 35°27' E 139°42'2 1.9
2014-Aug-30 12:33N 35°27' E 139°40'0 0.1
2014-Aug-30 11:33N 35°27' E 139°39'4 4.3
2014-Aug-30 10:33N 35°27' E 139°45'3 2.6
2014-Aug-30 09:33N 35°27' E 139°41'3 2.9
2014-Aug-30 08:33N 35°29' E 139°39'2 1.5
2014-Aug-30 07:33N 35°27' E 139°39'0 0.0
2014-Aug-30 06:33N 35°27' E 139°39'0 0.0
2014-Aug-30 05:33N 35°27' E 139°39'0 0.0
2014-Aug-30 04:33N 35°27' E 139°39'0 0.0
2014-Aug-30 03:33N 35°27' E 139°39'0 0.0
2014-Aug-30 02:33N 35°27' E 139°39'0 0.0
2014-Aug-30 01:33N 35°27' E 139°39'0 0.0
2014-Aug-30 00:33N 35°27' E 139°39'0 0.0
2014-Aug-29 23:33N 35°27' E 139°39'2 1.6
2014-Aug-29 22:33N 35°28' E 139°41'2 1.6
2014-Aug-29 21:33N 35°27' E 139°40'0 0.0
2014-Aug-29 20:33N 35°27' E 139°40'0 0.0
2014-Aug-29 08:23N 35°27' E 139°40'1 1.5
2014-Aug-29 07:34N 35°26' E 139°41'1 1.2
2014-Aug-29 06:33N 35°27' E 139°40'0 0.0
2014-Aug-29 05:33N 35°27' E 139°40'0 0.0
2014-Aug-29 04:33N 35°27' E 139°40'0 0.0
2014-Aug-29 03:33N 35°27' E 139°40'0 0.0
2014-Aug-29 02:33N 35°27' E 139°40'4 4.4
2014-Aug-29 01:33N 35°28' E 139°45'0 0.5
2014-Aug-29 00:33N 35°29' E 139°45'0 0.3
2014-Aug-28 23:33N 35°28' E 139°45'0 0.4
2014-Aug-28 22:33N 35°29' E 139°45'2 1.5
2014-Aug-28 21:33N 35°30' E 139°45'6 5.7
2014-Aug-28 20:33N 35°27' E 139°40'0 0.0
2014-Aug-28 07:10N 35°27' E 139°40'0 0.0
2014-Aug-28 06:33N 35°27' E 139°40'0 0.0
2014-Aug-28 05:33N 35°27' E 139°40'0 0.0
2014-Aug-28 04:33N 35°27' E 139°40'2 1.6
2014-Aug-28 03:34N 35°28' E 139°39'3 3.2
2014-Aug-28 02:33N 35°27' E 139°42'0 0.2
2014-Aug-28 01:33N 35°27' E 139°42'2 1.5
2014-Aug-28 00:34N 35°27' E 139°40'1 1.4
2014-Aug-27 23:34N 35°26' E 139°42'2 1.6
2014-Aug-27 22:33N 35°27' E 139°43'2 1.6
2014-Aug-27 21:33N 35°26' E 139°42'1 0.6
2014-Aug-27 20:33N 35°26' E 139°41'1 1.3
2014-Aug-27 19:33N 35°27' E 139°40'0 0.0
2014-Aug-27 07:33N 35°27' E 139°40'0 0.0
2014-Aug-27 06:33N 35°27' E 139°40'0 0.0
2014-Aug-27 05:33N 35°27' E 139°40'0 0.0
2014-Aug-27 04:33N 35°27' E 139°40'0 0.0
2014-Aug-27 03:33N 35°27' E 139°40'1 0.8
2014-Aug-27 02:33N 35°27' E 139°40'3 3.0
2014-Aug-27 01:33N 35°25' E 139°39'3 2.7
2014-Aug-27 00:33N 35°24' E 139°42'3 3.4
2014-Aug-26 23:33N 35°27' E 139°40'0 0.0
2014-Aug-26 22:33N 35°27' E 139°40'0 0.0
2014-Aug-26 21:33N 35°27' E 139°40'0 0.0
2014-Aug-26 20:33N 35°27' E 139°40'0 0.0
2014-Aug-26 07:11N 35°27' E 139°40'0 0.3
2014-Aug-26 06:33N 35°27' E 139°39'0 0.0
2014-Aug-26 05:33N 35°27' E 139°39'0 0.0
2014-Aug-26 04:33N 35°27' E 139°39'0 0.0
2014-Aug-26 03:33N 35°27' E 139°39'0 0.2
2014-Aug-26 02:33N 35°27' E 139°40'1 1.0
2014-Aug-26 01:33N 35°27' E 139°41'1 1.2
2014-Aug-26 00:33N 35°27' E 139°40'0 0.0
2014-Aug-25 23:33N 35°27' E 139°40'0 0.0
2014-Aug-25 22:33N 35°27' E 139°40'0 0.0
2014-Aug-25 21:33N 35°27' E 139°40'0 0.0
2014-Aug-25 20:33N 35°27' E 139°40'0 0.0
2014-Aug-25 08:34N 35°27' E 139°40'3 3.4
2014-Aug-25 07:34N 35°26' E 139°44'1 0.8
2014-Aug-25 06:33N 35°26' E 139°43'0 0.0
2014-Aug-25 05:33N 35°26' E 139°43'2 2.1
2014-Aug-25 04:33N 35°27' E 139°40'2 1.8
2014-Aug-25 03:33N 35°27' E 139°42'0 0.0
2014-Aug-25 02:33N 35°27' E 139°42'1 0.9
2014-Aug-25 01:33N 35°28' E 139°43'0 0.1
2014-Aug-25 00:33N 35°28' E 139°43'1 1.2
2014-Aug-24 23:33N 35°27' E 139°42'2 2.1
2014-Aug-24 22:33N 35°27' E 139°40'0 0.0
2014-Aug-24 21:33N 35°27' E 139°40'0 0.0
2014-Aug-24 20:33N 35°27' E 139°40'0 0.0
2014-Aug-24 09:32N 35°27' E 139°40'2 2.3
2014-Aug-24 08:34N 35°26' E 139°42'5 5.4
2014-Aug-24 07:33N 35°29' E 139°48'1 0.5
2014-Aug-24 06:33N 35°29' E 139°47'0 0.0
2014-Aug-24 05:34N 35°29' E 139°47'0 0.0
2014-Aug-24 04:33N 35°29' E 139°47'1 1.4
2014-Aug-24 03:33N 35°30' E 139°46'3 3.1
2014-Aug-24 02:33N 35°28' E 139°44'3 3.4
2014-Aug-24 01:33N 35°27' E 139°40'0 0.0
2014-Aug-24 00:33N 35°27' E 139°40'0 0.0
2014-Aug-23 23:33N 35°27' E 139°40'  

Dump ship's entire track history